Map

Track Data

SID SEASON NUMBER BASIN SUBBASIN NAME ISO_TIME NATURE LAT LON WMO_WIND WMO_PRES WMO_AGENCY TRACK_TYPE DIST2LAND LANDFALL IFLAG USA_AGENCY USA_ATCF_ID USA_LAT USA_LON USA_RECORD USA_STATUS USA_WIND USA_PRES USA_SSHS USA_R34_NE USA_R34_SE USA_R34_SW USA_R34_NW USA_R50_NE USA_R50_SE USA_R50_SW USA_R50_NW USA_R64_NE USA_R64_SE USA_R64_SW USA_R64_NW USA_POCI USA_ROCI USA_RMW USA_EYE TOKYO_LAT TOKYO_LON TOKYO_GRADE TOKYO_WIND TOKYO_PRES TOKYO_R50_DIR TOKYO_R50_LONG TOKYO_R50_SHORT TOKYO_R30_DIR TOKYO_R30_LONG TOKYO_R30_SHORT TOKYO_LAND CMA_LAT CMA_LON CMA_CAT CMA_WIND CMA_PRES HKO_LAT HKO_LON HKO_CAT HKO_WIND HKO_PRES NEWDELHI_LAT NEWDELHI_LON NEWDELHI_GRADE NEWDELHI_WIND NEWDELHI_PRES NEWDELHI_CI NEWDELHI_DP NEWDELHI_POCI REUNION_LAT REUNION_LON REUNION_TYPE REUNION_WIND REUNION_PRES REUNION_TNUM REUNION_CI REUNION_RMW REUNION_R34_NE REUNION_R34_SE REUNION_R34_SW REUNION_R34_NW REUNION_R50_NE REUNION_R50_SE REUNION_R50_SW REUNION_R50_NW REUNION_R64_NE REUNION_R64_SE REUNION_R64_SW REUNION_R64_NW BOM_LAT BOM_LON BOM_TYPE BOM_WIND BOM_PRES BOM_TNUM BOM_CI BOM_RMW BOM_R34_NE BOM_R34_SE BOM_R34_SW BOM_R34_NW BOM_R50_NE BOM_R50_SE BOM_R50_SW BOM_R50_NW BOM_R64_NE BOM_R64_SE BOM_R64_SW BOM_R64_NW BOM_ROCI BOM_POCI BOM_EYE BOM_POS_METHOD BOM_PRES_METHOD NADI_LAT NADI_LON NADI_CAT NADI_WIND NADI_PRES WELLINGTON_LAT WELLINGTON_LON WELLINGTON_WIND WELLINGTON_PRES DS824_LAT DS824_LON DS824_STAGE DS824_WIND DS824_PRES TD9636_LAT TD9636_LON TD9636_STAGE TD9636_WIND TD9636_PRES TD9635_LAT TD9635_LON TD9635_WIND TD9635_PRES TD9635_ROCI NEUMANN_LAT NEUMANN_LON NEUMANN_CLASS NEUMANN_WIND NEUMANN_PRES MLC_LAT MLC_LON MLC_CLASS MLC_WIND MLC_PRES USA_GUST BOM_GUST BOM_GUST_PER REUNION_GUST REUNION_GUST_PER USA_SEAHGT USA_SEARAD_NE USA_SEARAD_SE USA_SEARAD_SW USA_SEARAD_NW STORM_SPEED STORM_DIR
1991234N20089 1991 54 NI BB NOT_NAMED 1991-08-21 18:00:00 NR 20.3000 88.5000 998 newdelhi main 145 123 ____O_________ -1 20.3000 88.5000 998 0.00000 2 1000 5 329
1991234N20089 1991 54 NI BB NOT_NAMED 1991-08-21 21:00:00 NR 20.4951 88.3704 main 123 100 ____P_________ -1 20.4951 88.3704 996 3 999 5 325
1991234N20089 1991 54 NI BB NOT_NAMED 1991-08-22 00:00:00 NR 20.7000 88.2000 25 994 newdelhi main 100 80 ____O_________ -1 20.7000 88.2000 25 994 1.50000 4 998 6 318
1991234N20089 1991 54 NI BB NOT_NAMED 1991-08-22 03:00:00 NR 20.9396 87.9391 main 84 35 ____P_________ -1 20.9396 87.9391 25 995 4 999 9 313
1991234N20089 1991 54 NI BB NOT_NAMED 1991-08-22 06:00:00 NR 21.3000 87.5000 25 996 newdelhi main 35 0 ____O_________ -1 21.3000 87.5000 25 996 1.50000 4 1000 14 315
1991234N20089 1991 54 NI BB NOT_NAMED 1991-08-22 09:00:00 NR 21.9447 86.8493 main 0 0 ____P_________ -1 21.9447 86.8493 25 995 4 999 18 311
1991234N20089 1991 54 NI BB NOT_NAMED 1991-08-22 12:00:00 NR 22.5000 86.0000 25 994 newdelhi main 0 0 ____O_________ -1 22.5000 86.0000 25 994 0.00000 4 998 19 290
1991234N20089 1991 54 NI BB NOT_NAMED 1991-08-22 15:00:00 NR 22.5762 84.9607 main 0 0 ____P_________ -1 22.5762 84.9607 25 995 4 999 18 270
1991234N20089 1991 54 NI BB NOT_NAMED 1991-08-22 18:00:00 NR 22.5000 84.0000 25 996 newdelhi main 0 0 ____O_________ -1 22.5000 84.0000 25 996 0.00000 4 1000 14 270
1991234N20089 1991 54 NI BB NOT_NAMED 1991-08-22 21:00:00 NR 22.5760 83.4624 main 0 0 ____P_________ -1 22.5760 83.4624 25 995 4 999 9 282
1991234N20089 1991 54 NI BB NOT_NAMED 1991-08-23 00:00:00 NR 22.7000 83.0000 25 994 newdelhi main 0 0 ____O_________ -1 22.7000 83.0000 25 994 0.00000 4 998 11 282
1991234N20089 1991 54 NI BB NOT_NAMED 1991-08-23 03:00:00 NR 22.8053 82.2720 main 0 0 ____P_________ -1 22.8053 82.2720 25 994 4 998 14 282
1991234N20089 1991 54 NI BB NOT_NAMED 1991-08-23 06:00:00 NR 23.0000 81.5000 25 994 newdelhi main 0 0 ____O_________ -1 23.0000 81.5000 25 994 0.00000 4 998 15 293
1991234N20089 1991 54 NI BB NOT_NAMED 1991-08-23 09:00:00 NR 23.4077 80.7536 main 0 0 ____P_________ -1 23.4077 80.7536 25 993 4 997 14 304
1991234N20089 1991 54 NI BB NOT_NAMED 1991-08-23 12:00:00 NR 23.8000 80.2000 25 992 newdelhi main 0 0 ____O_________ -1 23.8000 80.2000 25 992 0.00000 4 996 9 307
1991234N20089 1991 54 NI BB NOT_NAMED 1991-08-23 15:00:00 NR 23.9220 80.0168 main 0 0 ____P_________ -1 23.9220 80.0168 25 993 4 997 3 318
1991234N20089 1991 54 NI BB NOT_NAMED 1991-08-23 18:00:00 NR 24.0000 80.0000 25 994 newdelhi main 0 0 ____O_________ -1 24.0000 80.0000 25 994 0.00000 4 998 4 341
1991234N20089 1991 54 NI BB NOT_NAMED 1991-08-23 21:00:00 NR 24.2650 79.8851 main 0 0 ____P_________ -1 24.2650 79.8851 25 994 4 998 5 340
1991234N20089 1991 54 NI BB NOT_NAMED 1991-08-24 00:00:00 NR 24.5000 79.8000 25 994 newdelhi main 0 0 ____O_________ -1 24.5000 79.8000 25 994 0.00000 4 998 3 343
1991234N20089 1991 54 NI BB NOT_NAMED 1991-08-24 03:00:00 NR 24.5375 79.7849 main 0 0 ____P_________ -1 24.5375 79.7849 25 994 4 998 0 0
1991234N20089 1991 54 NI BB NOT_NAMED 1991-08-24 06:00:00 NR 24.5000 79.8000 25 994 newdelhi main 0 0 ____O_________ -1 24.5000 79.8000 25 994 0.00000 4 998 1 127
1991234N20089 1991 54 NI BB NOT_NAMED 1991-08-24 09:00:00 NR 24.4621 79.8896 main 0 0 ____P_________ -1 24.4621 79.8896 25 993 4 997 0 0
1991234N20089 1991 54 NI BB NOT_NAMED 1991-08-24 12:00:00 NR 24.5000 79.8000 25 992 newdelhi main 0 0 ____O_________ -1 24.5000 79.8000 25 992 0.00000 4 996 7 288
1991234N20089 1991 54 NI BB NOT_NAMED 1991-08-24 15:00:00 NR 24.6612 79.2082 main 0 0 ____P_________ -1 24.6612 79.2082 25 993 4 997 12 295
1991234N20089 1991 54 NI BB NOT_NAMED 1991-08-24 18:00:00 NR 25.0000 78.6000 25 994 newdelhi main 0 0 ____O_________ -1 25.0000 78.6000 25 994 0.00000 4 998 12 324
1991234N20089 1991 54 NI BB NOT_NAMED 1991-08-24 21:00:00 NR 25.5921 78.4594 main 0 0 ____P_________ -1 25.5921 78.4594 25 993 4 997 12 356
1991234N20089 1991 54 NI BB NOT_NAMED 1991-08-25 00:00:00 NR 26.2000 78.5000 25 992 newdelhi main 0 0 ____O_________ -1 26.2000 78.5000 25 992 0.00000 4 996 10 2
1991234N20089 1991 54 NI BB NOT_NAMED 1991-08-25 03:00:00 NR 26.5750 78.4924 main 0 0 ____P_________ -1 26.5750 78.4924 25 993 4 997 6 1
1991234N20089 1991 54 NI BB NOT_NAMED 1991-08-25 06:00:00 NR 26.8000 78.5000 25 994 newdelhi main 0 0 ____O_________ -1 26.8000 78.5000 25 994 0.00000 4 998 3 4
1991234N20089 1991 54 NI BB NOT_NAMED 1991-08-25 09:00:00 NR 26.9075 78.5000 main 0 0 ____P_________ -1 26.9075 78.5000 25 993 4 997 2 8
1991234N20089 1991 54 NI BB NOT_NAMED 1991-08-25 12:00:00 NR 27.0000 78.5000 25 992 newdelhi main 0 0 ____O_________ -1 27.0000 78.5000 25 992 0.00000 4 996 4 4
1991234N20089 1991 54 NI BB NOT_NAMED 1991-08-25 15:00:00 NR 27.2650 78.5000 main 0 0 ____P_________ -1 27.2650 78.5000 25 993 4 997 5 2
1991234N20089 1991 54 NI BB NOT_NAMED 1991-08-25 18:00:00 NR 27.5000 78.5000 25 994 newdelhi main 0 0 ____O_________ -1 27.5000 78.5000 25 994 0.00000 4 998 2 0
1991234N20089 1991 54 NI BB NOT_NAMED 1991-08-25 21:00:00 NR 27.5000 78.5075 main 0 0 ____P_________ -1 27.5000 78.5075 25 995 4 999 0 0
1991234N20089 1991 54 NI BB NOT_NAMED 1991-08-26 00:00:00 NR 27.5000 78.5000 25 996 newdelhi main 0 0 ____O_________ -1 27.5000 78.5000 25 996 0.00000 4 1000 2 349
1991234N20089 1991 54 NI BB NOT_NAMED 1991-08-26 03:00:00 NR 27.7125 78.4650 main 0 0 ____P_________ -1 27.7125 78.4650 20 997 3 1000 5 350
1991234N20089 1991 54 NI BB NOT_NAMED 1991-08-26 06:00:00 NR 28.0000 78.4000 15 998 newdelhi main 0 0 ____O_________ -1 28.0000 78.4000 15 998 0.00000 2 1000 6 345
1991234N20089 1991 54 NI BB NOT_NAMED 1991-08-26 09:00:00 NR 28.2725 78.2926 main 0 0 ____P_________ -1 28.2725 78.2926 15 997 2 999 5 340
1991234N20089 1991 54 NI BB NOT_NAMED 1991-08-26 12:00:00 NR 28.5000 78.2000 15 996 newdelhi main 0 0 ____O_________ -1 28.5000 78.2000 15 996 0.00000 2 998 4 343
1991234N20089 1991 54 NI BB NOT_NAMED 1991-08-26 15:00:00 NR 28.6300 78.1774 main 0 0 ____P_________ -1 28.6300 78.1774 15 997 2 999 2 8
1991234N20089 1991 54 NI BB NOT_NAMED 1991-08-26 18:00:00 NR 28.7000 78.2000 15 998 newdelhi main 0 ____O_________ -1 28.7000 78.2000 15 998 0.00000 2 1000 1 0

About IBTrACS Database

This database is a web-friendly format of International Best Track Archive for Climate Stewardship (IBTrACS), a global best track data archive curated by NOAA dating back to 1842.

Updated: 2021-11-26